createdAt,value
2022-12-08T00:00:10.779Z,1.60
2022-12-08T00:01:10.793Z,1.62
2022-12-08T00:02:11.020Z,1.64
2022-12-08T00:03:10.949Z,1.62
2022-12-08T00:04:10.815Z,1.64
2022-12-08T00:05:10.820Z,1.67
2022-12-08T00:06:10.827Z,1.65
2022-12-08T00:07:10.842Z,1.66
2022-12-08T00:08:10.957Z,1.66
2022-12-08T00:09:10.859Z,1.64
2022-12-08T00:10:40.187Z,1.66
2022-12-08T00:11:10.870Z,1.65
2022-12-08T00:12:10.884Z,1.64
2022-12-08T00:13:10.898Z,1.63
2022-12-08T00:14:10.929Z,1.61
2022-12-08T00:15:10.930Z,1.59
2022-12-08T00:16:10.992Z,1.59
2022-12-08T00:17:10.949Z,1.59
2022-12-08T00:18:10.955Z,1.59
2022-12-08T00:19:10.965Z,1.62
2022-12-08T00:20:10.971Z,1.60
2022-12-08T00:21:10.977Z,1.57
2022-12-08T00:22:10.995Z,1.57
2022-12-08T00:23:11.012Z,1.60
2022-12-08T00:24:11.018Z,1.58
2022-12-08T00:25:11.024Z,1.62
2022-12-08T00:26:11.040Z,1.58
2022-12-08T00:27:11.055Z,1.60
2022-12-08T00:28:11.063Z,1.63
2022-12-08T00:29:15.928Z,1.66
2022-12-08T00:30:11.088Z,1.66
2022-12-08T00:31:11.115Z,1.66
2022-12-08T00:32:11.158Z,1.65
2022-12-08T00:33:11.131Z,1.66
2022-12-08T00:34:11.131Z,1.66
2022-12-08T00:35:11.142Z,1.68
2022-12-08T00:36:11.155Z,1.67
2022-12-08T00:37:11.172Z,1.66
2022-12-08T00:38:11.179Z,1.64
2022-12-08T00:39:11.189Z,1.65
2022-12-08T00:40:11.197Z,1.68
2022-12-08T00:41:11.215Z,1.68
2022-12-08T00:42:11.232Z,1.67
2022-12-08T00:43:11.232Z,1.67
2022-12-08T00:44:11.253Z,1.67
2022-12-08T00:45:11.259Z,1.67
2022-12-08T00:46:11.315Z,1.70
2022-12-08T00:47:11.279Z,1.69
2022-12-08T00:48:11.296Z,1.70
2022-12-08T00:49:11.298Z,1.68
2022-12-08T00:50:11.305Z,1.68
2022-12-08T00:51:11.313Z,1.70
2022-12-08T00:52:11.331Z,1.72
2022-12-08T00:53:11.342Z,1.71
2022-12-08T00:54:11.344Z,1.73
2022-12-08T00:55:11.350Z,1.72
2022-12-08T00:56:11.352Z,1.72
2022-12-08T00:57:11.371Z,1.73
2022-12-08T00:58:11.376Z,1.72
2022-12-08T00:59:11.395Z,1.72
2022-12-08T01:00:11.409Z,1.72
2022-12-08T01:01:11.472Z,1.72
2022-12-08T01:02:11.443Z,1.74
2022-12-08T01:03:11.529Z,1.77
2022-12-08T01:04:11.463Z,1.77
2022-12-08T01:05:11.480Z,1.78
2022-12-08T01:06:11.496Z,1.77
2022-12-08T01:07:11.515Z,1.77
2022-12-08T01:08:11.614Z,1.77
2022-12-08T01:09:11.546Z,1.79
2022-12-08T01:10:11.562Z,1.78
2022-12-08T01:11:11.578Z,1.78
2022-12-08T01:12:11.584Z,1.81
2022-12-08T01:13:11.590Z,1.80
2022-12-08T01:14:11.612Z,1.81
2022-12-08T01:15:11.631Z,1.81
2022-12-08T01:16:11.710Z,1.83
2022-12-08T01:17:11.698Z,1.83
2022-12-08T01:18:11.668Z,1.83
2022-12-08T01:19:11.867Z,1.84
2022-12-08T01:37:12.281Z,1.85
2022-12-08T01:38:11.951Z,1.86
2022-12-08T01:39:11.967Z,1.86
2022-12-08T01:40:11.974Z,1.87
2022-12-08T01:41:11.990Z,1.88
2022-12-08T01:42:11.999Z,1.90
2022-12-08T01:43:12.015Z,1.91
2022-12-08T01:44:12.019Z,1.91
2022-12-08T01:45:12.038Z,1.90
2022-12-08T01:46:12.082Z,1.90
2022-12-08T01:47:12.068Z,1.91
2022-12-08T01:48:12.207Z,1.91
2022-12-08T01:49:12.091Z,1.91
2022-12-08T01:50:12.108Z,1.93
2022-12-08T01:51:12.112Z,1.93
2022-12-08T01:52:12.120Z,1.94
2022-12-08T01:53:12.127Z,1.93
2022-12-08T01:54:12.142Z,1.95
2022-12-08T01:55:12.147Z,1.95
2022-12-08T01:56:12.164Z,1.99
2022-12-08T01:57:12.179Z,1.98
2022-12-08T01:58:12.196Z,1.99
2022-12-08T01:59:12.202Z,2.01
2022-12-08T02:00:12.219Z,1.99
2022-12-08T02:01:12.313Z,2.00
2022-12-08T02:02:12.307Z,2.02
2022-12-08T02:03:12.260Z,2.02
2022-12-08T02:04:12.277Z,2.04
2022-12-08T02:05:12.286Z,2.06
2022-12-08T02:06:12.301Z,2.08
2022-12-08T02:07:12.320Z,2.07
2022-12-08T02:08:12.390Z,2.08
2022-12-08T02:09:12.342Z,2.07
2022-12-08T02:10:12.348Z,2.08
2022-12-08T02:11:12.370Z,2.08
2022-12-08T02:12:12.376Z,2.07
2022-12-08T02:13:12.377Z,2.07
2022-12-08T02:14:12.388Z,2.07
2022-12-08T02:15:12.406Z,2.07
2022-12-08T02:16:12.499Z,2.09
2022-12-08T02:17:12.415Z,2.10
2022-12-08T02:18:12.438Z,2.11
2022-12-08T02:20:12.460Z,2.10
2022-12-08T02:21:12.468Z,2.13
2022-12-08T02:22:12.476Z,2.12
2022-12-08T02:23:12.494Z,2.09
2022-12-08T02:24:12.501Z,2.10
2022-12-08T02:25:12.503Z,2.10
2022-12-08T02:26:12.513Z,2.09
2022-12-08T02:27:12.523Z,2.10
2022-12-08T02:28:12.534Z,2.08
2022-12-08T02:29:12.551Z,2.11
2022-12-08T02:30:12.563Z,2.08
2022-12-08T02:31:12.630Z,2.08
2022-12-08T02:32:12.582Z,2.08
2022-12-08T02:33:12.598Z,2.05
2022-12-08T02:34:12.618Z,2.02
2022-12-08T02:35:12.633Z,2.01
2022-12-08T02:36:12.638Z,2.00
2022-12-08T02:37:12.657Z,1.98
2022-12-08T02:38:12.667Z,1.96
2022-12-08T02:39:12.670Z,1.93
2022-12-08T02:40:12.685Z,1.89
2022-12-08T02:41:12.705Z,1.89
2022-12-08T02:42:12.712Z,1.90
2022-12-08T02:43:12.716Z,1.92
2022-12-08T02:44:12.727Z,1.91
2022-12-08T02:45:12.748Z,1.91
2022-12-08T02:46:12.820Z,1.88
2022-12-08T02:47:12.783Z,1.91
2022-12-08T02:48:12.780Z,1.93
2022-12-08T02:49:12.798Z,1.93
2022-12-08T02:50:12.810Z,1.95
2022-12-08T02:51:12.826Z,1.95
2022-12-08T02:52:12.836Z,1.91
2022-12-08T02:54:13.021Z,1.88
2022-12-08T02:55:12.865Z,1.89
2022-12-08T02:56:12.884Z,1.92
2022-12-08T02:57:12.899Z,1.92
2022-12-08T02:58:12.920Z,1.96
2022-12-08T02:59:12.935Z,1.92
2022-12-08T03:00:12.962Z,1.94
2022-12-08T03:01:13.070Z,1.94
2022-12-08T03:02:13.064Z,1.95
2022-12-08T03:03:13.004Z,1.95
2022-12-08T03:04:13.021Z,1.96
2022-12-08T03:05:13.025Z,1.94
2022-12-08T03:06:13.032Z,1.95
2022-12-08T03:07:13.049Z,1.98
2022-12-08T03:08:13.142Z,1.95
2022-12-08T03:09:13.082Z,1.96
2022-12-08T03:10:13.089Z,1.94
2022-12-08T03:11:13.105Z,1.93
2022-12-08T03:12:13.115Z,1.94
2022-12-08T03:13:13.130Z,1.95
2022-12-08T03:14:13.142Z,1.97
2022-12-08T03:15:13.157Z,2.00
2022-12-08T03:16:13.250Z,1.96
2022-12-08T03:17:13.171Z,1.96
2022-12-08T03:18:13.192Z,1.96
2022-12-08T03:19:13.211Z,1.97
2022-12-08T03:20:13.229Z,1.97
2022-12-08T03:21:13.251Z,1.95
2022-12-08T03:22:13.271Z,1.94
2022-12-08T03:23:13.313Z,1.93
2022-12-08T03:24:13.360Z,1.92
2022-12-08T03:25:13.318Z,1.91
2022-12-08T03:26:13.330Z,1.90
2022-12-08T03:27:13.337Z,1.86
2022-12-08T03:28:13.353Z,1.82
2022-12-08T03:29:13.370Z,1.78
2022-12-08T03:30:13.382Z,1.72
2022-12-08T03:31:14.543Z,1.71
2022-12-08T03:32:13.414Z,1.71
2022-12-08T03:33:13.425Z,1.74
2022-12-08T03:34:13.437Z,1.72
2022-12-08T03:35:13.444Z,1.71
2022-12-08T03:36:13.453Z,1.65
2022-12-08T03:37:13.472Z,1.61
2022-12-08T03:38:13.483Z,1.59
2022-12-08T03:39:13.491Z,1.56
2022-12-08T03:40:13.495Z,1.53
2022-12-08T03:41:13.513Z,1.55
2022-12-08T03:42:13.536Z,1.55
2022-12-08T03:43:13.552Z,1.57
2022-12-08T03:44:13.558Z,1.57
2022-12-08T03:45:13.565Z,1.57
2022-12-08T03:46:13.635Z,1.55
2022-12-08T03:47:13.778Z,1.54
2022-12-08T03:48:13.606Z,1.53
2022-12-08T03:49:13.628Z,1.55
2022-12-08T03:50:13.647Z,1.56
2022-12-08T03:51:13.663Z,1.57
2022-12-08T03:52:13.677Z,1.61
2022-12-08T03:53:13.683Z,1.61
2022-12-08T03:54:13.702Z,1.64
2022-12-08T03:55:13.705Z,1.69
2022-12-08T03:56:13.720Z,1.68
2022-12-08T03:57:13.733Z,1.67
2022-12-08T03:58:13.746Z,1.69
2022-12-08T03:59:13.748Z,1.68
2022-12-08T04:00:13.754Z,1.69
2022-12-08T04:01:13.766Z,1.68
2022-12-08T04:02:13.802Z,1.66
2022-12-08T04:03:13.806Z,1.63
2022-12-08T04:04:13.801Z,1.60
2022-12-08T04:05:13.815Z,1.60
2022-12-08T04:06:13.828Z,1.60
2022-12-08T04:07:13.833Z,1.60
2022-12-08T04:08:14.123Z,1.60
2022-12-08T04:09:13.854Z,1.61
2022-12-08T04:10:13.865Z,1.64
2022-12-08T04:11:13.881Z,1.62
2022-12-08T04:12:13.900Z,1.58
2022-12-08T04:13:13.918Z,1.53
2022-12-08T04:14:13.925Z,1.49
2022-12-08T04:15:13.938Z,1.50
2022-12-08T04:16:14.012Z,1.51
2022-12-08T04:17:13.953Z,1.52
2022-12-08T04:18:13.970Z,1.56
2022-12-08T04:19:13.990Z,1.57
2022-12-08T04:20:14.010Z,1.61
2022-12-08T04:21:14.025Z,1.65
2022-12-08T04:22:14.047Z,1.67
2022-12-08T04:23:14.064Z,1.68
2022-12-08T04:24:14.082Z,1.67
2022-12-08T04:25:14.107Z,1.67
2022-12-08T04:26:14.108Z,1.63
2022-12-08T04:27:14.128Z,1.59
2022-12-08T04:28:14.138Z,1.58
2022-12-08T04:29:14.152Z,1.56
2022-12-08T04:30:14.162Z,1.56
2022-12-08T04:31:14.214Z,1.53
2022-12-08T04:32:14.192Z,1.55
2022-12-08T04:33:14.195Z,1.56
2022-12-08T04:34:14.205Z,1.56
2022-12-08T04:35:14.215Z,1.59
2022-12-08T04:36:14.228Z,1.60
2022-12-08T04:37:14.243Z,1.57
2022-12-08T04:38:14.251Z,1.54
2022-12-08T04:39:14.274Z,1.54
2022-12-08T04:40:14.288Z,1.58
2022-12-08T04:41:14.304Z,1.61
2022-12-08T04:42:14.322Z,1.61
2022-12-08T04:43:14.322Z,1.63
2022-12-08T04:44:14.333Z,1.63
2022-12-08T04:45:14.339Z,1.64
2022-12-08T04:46:14.403Z,1.61
2022-12-08T04:47:14.414Z,1.64
2022-12-08T04:48:14.361Z,1.64
2022-12-08T04:49:14.366Z,1.68
2022-12-08T04:50:14.380Z,1.68
2022-12-08T04:51:14.398Z,1.67
2022-12-08T04:52:14.407Z,1.64
2022-12-08T04:53:14.416Z,1.65
2022-12-08T04:54:14.422Z,1.69
2022-12-08T04:55:14.430Z,1.70
2022-12-08T04:56:14.438Z,1.73
2022-12-08T04:57:14.459Z,1.73
2022-12-08T04:58:14.472Z,1.73
2022-12-08T04:59:15.287Z,1.77
2022-12-08T05:00:14.494Z,1.77
2022-12-08T05:01:14.589Z,1.73
2022-12-08T05:02:14.742Z,1.69
2022-12-08T05:03:14.526Z,1.69
2022-12-08T05:04:14.537Z,1.70
2022-12-08T05:05:14.556Z,1.72
2022-12-08T05:06:14.568Z,1.73
2022-12-08T05:07:14.581Z,1.74
2022-12-08T05:08:14.687Z,1.73
2022-12-08T05:09:14.593Z,1.73
2022-12-08T05:10:14.604Z,1.77
2022-12-08T05:11:14.620Z,1.81
2022-12-08T05:12:14.627Z,1.80
2022-12-08T05:13:14.632Z,1.83
2022-12-08T05:14:14.644Z,1.85
2022-12-08T05:15:14.646Z,1.88
2022-12-08T05:16:14.789Z,1.88
2022-12-08T05:17:14.661Z,1.84
2022-12-08T05:18:14.671Z,1.84
2022-12-08T05:19:14.677Z,1.86
2022-12-08T05:20:14.705Z,1.88
2022-12-08T05:21:14.696Z,1.93
2022-12-08T05:22:14.700Z,1.91
2022-12-08T05:23:14.708Z,1.91
2022-12-08T05:24:14.713Z,1.87
2022-12-08T05:25:14.718Z,1.83
2022-12-08T05:26:14.725Z,1.84
2022-12-08T05:27:14.734Z,1.85
2022-12-08T05:28:40.018Z,1.82
2022-12-08T05:29:14.748Z,1.79
2022-12-08T05:30:14.758Z,1.80
2022-12-08T05:31:14.872Z,1.82
2022-12-08T05:32:14.774Z,1.84
2022-12-08T05:33:14.780Z,1.89
2022-12-08T05:34:14.787Z,1.91
2022-12-08T05:35:14.793Z,1.88
2022-12-08T05:36:14.799Z,1.89
2022-12-08T05:37:14.803Z,1.86
2022-12-08T05:38:14.810Z,1.81
2022-12-08T05:39:14.817Z,1.77
2022-12-08T05:40:14.822Z,1.69
2022-12-08T05:41:14.829Z,1.63
2022-12-08T05:42:14.833Z,1.54
2022-12-08T05:43:14.841Z,1.48
2022-12-08T05:44:14.847Z,1.44
2022-12-08T05:45:14.853Z,1.44
2022-12-08T05:46:14.975Z,1.48
2022-12-08T05:47:14.869Z,1.52
2022-12-08T05:48:14.873Z,1.55
2022-12-08T05:49:14.880Z,1.60
2022-12-08T05:50:14.888Z,1.64
2022-12-08T05:51:14.890Z,1.67
2022-12-08T05:52:14.900Z,1.69
2022-12-08T05:53:14.905Z,1.68
2022-12-08T05:54:14.912Z,1.66
2022-12-08T05:55:14.917Z,1.67
2022-12-08T05:56:14.922Z,1.71
2022-12-08T05:57:14.929Z,1.75
2022-12-08T05:58:14.936Z,1.76
2022-12-08T05:59:14.942Z,1.81
2022-12-08T06:00:14.948Z,1.80
2022-12-08T06:01:14.953Z,1.75
2022-12-08T06:02:15.200Z,1.75
2022-12-08T06:03:15.055Z,1.75
2022-12-08T06:04:14.973Z,1.74
2022-12-08T06:05:14.978Z,1.74
2022-12-08T06:06:14.986Z,1.75
2022-12-08T06:07:16.231Z,1.79
2022-12-08T06:08:15.053Z,1.83
2022-12-08T06:09:15.002Z,1.86
2022-12-08T06:10:15.011Z,1.88
2022-12-08T06:11:15.014Z,1.87
2022-12-08T06:12:15.020Z,1.88
2022-12-08T06:13:15.030Z,1.86
2022-12-08T06:14:15.033Z,1.86
2022-12-08T06:15:15.039Z,1.83
2022-12-08T06:16:15.129Z,1.85
2022-12-08T06:17:15.051Z,1.78
2022-12-08T06:18:15.069Z,1.71
2022-12-08T06:19:15.067Z,1.70
2022-12-08T06:20:15.079Z,1.73
2022-12-08T06:21:15.085Z,1.77
2022-12-08T06:22:15.092Z,1.77
2022-12-08T06:23:15.105Z,1.75
2022-12-08T06:24:15.109Z,1.73
2022-12-08T06:25:15.109Z,1.76
2022-12-08T06:26:15.119Z,1.79
2022-12-08T06:27:15.125Z,1.80
2022-12-08T06:28:15.130Z,1.78
2022-12-08T06:29:15.139Z,1.79
2022-12-08T06:30:15.144Z,1.73
2022-12-08T06:31:15.151Z,1.69
2022-12-08T06:32:15.192Z,1.68
2022-12-08T06:33:15.163Z,1.70
2022-12-08T06:34:15.167Z,1.64
2022-12-08T06:35:15.174Z,1.60
2022-12-08T06:36:15.179Z,1.59
2022-12-08T06:37:15.187Z,1.61
2022-12-08T06:38:15.190Z,1.66
2022-12-08T06:39:15.196Z,1.69
2022-12-08T06:40:15.206Z,1.69
2022-12-08T06:41:15.215Z,1.67
2022-12-08T06:42:15.223Z,1.64
2022-12-08T06:43:15.230Z,1.59
2022-12-08T06:44:15.241Z,1.56
2022-12-08T06:45:15.245Z,1.55
2022-12-08T06:46:15.380Z,1.61
2022-12-08T06:47:15.262Z,1.59
2022-12-08T06:48:15.271Z,1.59
2022-12-08T06:49:15.280Z,1.60
2022-12-08T06:50:15.284Z,1.60
2022-12-08T06:51:15.290Z,1.59
2022-12-08T06:52:15.297Z,1.60
2022-12-08T06:53:15.303Z,1.61
2022-12-08T06:54:15.308Z,1.64
2022-12-08T06:55:35.246Z,1.68
2022-12-08T06:56:15.319Z,1.71
2022-12-08T06:57:15.327Z,1.70
2022-12-08T06:58:15.330Z,1.71
2022-12-08T06:59:15.335Z,1.68
2022-12-08T07:00:15.342Z,1.66
2022-12-08T07:01:15.456Z,1.70
2022-12-08T07:02:15.478Z,1.74
2022-12-08T07:03:15.373Z,1.78
2022-12-08T07:04:15.377Z,1.79
2022-12-08T07:05:15.387Z,1.81
2022-12-08T07:06:15.396Z,1.81
2022-12-08T07:07:15.401Z,1.78
2022-12-08T07:08:15.473Z,1.77
2022-12-08T07:09:15.415Z,1.75
2022-12-08T07:10:15.424Z,1.78
2022-12-08T07:11:19.748Z,1.82
2022-12-08T07:12:15.435Z,1.80
2022-12-08T07:13:15.440Z,1.75
2022-12-08T07:14:15.449Z,1.70
2022-12-08T07:15:15.456Z,1.71
2022-12-08T07:16:15.507Z,1.74
2022-12-08T07:17:15.501Z,1.77
2022-12-08T07:18:15.472Z,1.80
2022-12-08T07:19:15.485Z,1.85
2022-12-08T07:20:15.485Z,1.90
2022-12-08T07:21:15.498Z,1.92
2022-12-08T07:22:15.502Z,1.96
2022-12-08T07:23:15.513Z,1.94
2022-12-08T07:24:15.520Z,1.97
2022-12-08T07:25:15.532Z,1.93
2022-12-08T07:26:15.535Z,1.96
2022-12-08T07:27:15.548Z,1.98
2022-12-08T07:28:15.553Z,1.98
2022-12-08T07:29:15.560Z,2.00
2022-12-08T07:30:15.564Z,2.05
2022-12-08T07:31:15.598Z,2.05
2022-12-08T07:32:15.577Z,2.08
2022-12-08T07:33:15.580Z,2.10
2022-12-08T07:34:15.586Z,2.10
2022-12-08T07:35:15.592Z,2.14
2022-12-08T07:36:15.598Z,2.17
2022-12-08T07:37:15.604Z,2.17
2022-12-08T07:38:15.611Z,2.18
2022-12-08T07:39:15.620Z,2.18
2022-12-08T07:40:15.623Z,2.22
2022-12-08T07:41:15.629Z,2.22
2022-12-08T07:42:15.634Z,2.24
2022-12-08T07:43:15.641Z,2.26
2022-12-08T07:44:15.648Z,2.30
2022-12-08T07:45:15.658Z,2.30
2022-12-08T07:46:15.755Z,2.32
2022-12-08T07:47:15.668Z,2.37
2022-12-08T07:48:15.673Z,2.35
2022-12-08T07:49:15.679Z,2.35
2022-12-08T07:50:15.684Z,2.38
2022-12-08T07:51:15.693Z,2.39
2022-12-08T07:52:15.698Z,2.39
2022-12-08T07:53:15.704Z,2.39
2022-12-08T07:54:15.709Z,2.40
2022-12-08T07:55:15.723Z,2.43
2022-12-08T07:56:15.725Z,2.43
2022-12-08T07:57:15.728Z,2.45
2022-12-08T07:58:15.737Z,2.45
2022-12-08T07:59:15.741Z,2.43
2022-12-08T08:00:15.746Z,2.44
2022-12-08T08:01:15.871Z,2.45
2022-12-08T08:02:23.986Z,2.42
2022-12-08T08:03:15.812Z,2.41
2022-12-08T08:04:15.808Z,2.42
2022-12-08T08:05:15.781Z,2.36
2022-12-08T08:06:15.785Z,2.33
2022-12-08T08:07:15.792Z,2.33
2022-12-08T08:08:15.896Z,2.32
2022-12-08T08:09:15.811Z,2.34
2022-12-08T08:10:15.816Z,2.34
2022-12-08T08:11:20.738Z,2.36
2022-12-08T08:12:31.135Z,2.33
2022-12-08T08:13:15.837Z,2.36
2022-12-08T08:14:15.842Z,2.37
2022-12-08T08:15:15.853Z,2.32
2022-12-08T08:16:16.054Z,2.33
2022-12-08T08:17:15.944Z,2.29
2022-12-08T08:18:15.882Z,2.29
2022-12-08T08:19:15.872Z,2.23
2022-12-08T08:20:15.880Z,2.19
2022-12-08T08:21:43.585Z,2.16
2022-12-08T08:22:15.891Z,2.13
2022-12-08T08:23:15.896Z,2.12
2022-12-08T08:24:15.906Z,2.15
2022-12-08T08:25:15.910Z,2.16
2022-12-08T08:26:15.917Z,2.20
2022-12-08T08:27:15.922Z,2.20
2022-12-08T08:28:15.933Z,2.22
2022-12-08T08:29:15.938Z,2.28
2022-12-08T08:30:20.233Z,2.25
2022-12-08T08:31:15.980Z,2.26
2022-12-08T08:32:15.958Z,2.26
2022-12-08T08:33:15.962Z,2.25
2022-12-08T08:34:15.968Z,2.26
2022-12-08T08:35:15.984Z,2.23
2022-12-08T08:36:15.986Z,2.18
2022-12-08T08:37:16.010Z,2.19
2022-12-08T08:38:15.992Z,2.18
2022-12-08T08:39:15.996Z,2.20
2022-12-08T08:40:16.004Z,2.23
2022-12-08T08:41:16.009Z,2.25
2022-12-08T08:42:16.016Z,2.24
2022-12-08T08:43:16.023Z,2.25
2022-12-08T08:44:16.028Z,2.29
2022-12-08T08:45:16.034Z,2.32
2022-12-08T08:46:16.115Z,2.31
2022-12-08T08:47:16.046Z,2.36
2022-12-08T08:48:16.051Z,2.37
2022-12-08T08:49:16.058Z,2.35
2022-12-08T08:50:16.064Z,2.38
2022-12-08T08:51:16.071Z,2.37
2022-12-08T08:52:16.076Z,2.37
2022-12-08T08:53:16.084Z,2.34
2022-12-08T08:54:16.090Z,2.36
2022-12-08T08:55:16.093Z,2.38
2022-12-08T08:56:16.109Z,2.38
2022-12-08T08:57:17.489Z,2.37
2022-12-08T08:58:16.122Z,2.36
2022-12-08T08:59:16.118Z,2.40
2022-12-08T09:00:16.123Z,2.44
2022-12-08T09:01:16.170Z,2.48
2022-12-08T09:02:16.232Z,2.51
2022-12-08T09:03:16.717Z,2.57
2022-12-08T09:04:16.257Z,2.58
2022-12-08T09:05:16.153Z,2.63
2022-12-08T09:06:16.268Z,2.66
2022-12-08T09:07:16.165Z,2.69
2022-12-08T09:08:16.248Z,2.72
2022-12-08T09:09:16.179Z,2.75
2022-12-08T09:10:16.188Z,2.74
2022-12-08T09:11:16.190Z,2.73
2022-12-08T09:12:16.199Z,2.70
2022-12-08T09:13:16.202Z,2.63
2022-12-08T09:14:16.211Z,2.57
2022-12-08T09:15:16.215Z,2.53
2022-12-08T09:16:16.259Z,2.46
2022-12-08T09:17:16.235Z,2.46
2022-12-08T09:18:16.244Z,2.43
2022-12-08T09:19:16.244Z,2.43
2022-12-08T09:20:16.250Z,2.43
2022-12-08T09:21:16.261Z,2.39
2022-12-08T09:22:16.276Z,2.39
2022-12-08T09:23:16.268Z,2.39
2022-12-08T09:24:16.280Z,2.37
2022-12-08T09:25:16.277Z,2.38
2022-12-08T09:26:16.289Z,2.37
2022-12-08T09:27:16.291Z,2.37
2022-12-08T09:28:16.297Z,2.32
2022-12-08T09:29:16.304Z,2.29
2022-12-08T09:30:16.308Z,2.26
2022-12-08T09:31:16.378Z,2.20
2022-12-08T09:32:16.320Z,2.13
2022-12-08T09:33:16.327Z,2.11
2022-12-08T09:34:16.333Z,2.14
2022-12-08T09:35:16.339Z,2.14
2022-12-08T09:36:16.351Z,2.14
2022-12-08T09:37:16.359Z,2.15
2022-12-08T09:38:16.360Z,2.10
2022-12-08T09:39:16.367Z,2.09
2022-12-08T09:40:16.371Z,2.10
2022-12-08T09:41:16.377Z,2.12
2022-12-08T09:42:16.383Z,2.10
2022-12-08T09:43:16.391Z,2.13
2022-12-08T09:44:16.400Z,2.14
2022-12-08T09:45:16.403Z,2.16
2022-12-08T09:46:16.451Z,2.17
2022-12-08T09:47:16.426Z,2.16
2022-12-08T09:48:16.427Z,2.18
2022-12-08T09:49:16.449Z,2.19
2022-12-08T09:50:16.438Z,2.16
2022-12-08T09:51:16.449Z,2.18
2022-12-08T09:52:16.454Z,2.20
2022-12-08T09:53:16.460Z,2.19
2022-12-08T09:54:16.466Z,2.20
2022-12-08T09:55:16.470Z,2.22
2022-12-08T09:56:16.476Z,2.27
2022-12-08T09:57:16.482Z,2.29
2022-12-08T09:58:16.494Z,2.29
2022-12-08T09:59:16.501Z,2.33
2022-12-08T10:00:16.515Z,2.34
2022-12-08T10:01:16.577Z,2.33
2022-12-08T10:02:16.555Z,2.32
2022-12-08T10:03:17.114Z,2.34
2022-12-08T10:04:16.542Z,2.36
2022-12-08T10:05:16.625Z,2.42
2022-12-08T10:06:16.555Z,2.45
2022-12-08T10:07:16.562Z,2.48
2022-12-08T10:08:16.606Z,2.52
2022-12-08T10:09:19.715Z,2.58
2022-12-08T10:10:16.585Z,2.64
2022-12-08T10:11:16.593Z,2.67
2022-12-08T10:12:16.598Z,2.71
2022-12-08T10:13:16.609Z,2.75
2022-12-08T10:14:16.611Z,2.81
2022-12-08T10:15:16.621Z,2.85
2022-12-08T10:16:22.149Z,2.89
2022-12-08T10:17:16.633Z,2.89
2022-12-08T10:18:16.646Z,2.91
2022-12-08T10:19:16.655Z,2.93
2022-12-08T10:20:16.667Z,2.94
2022-12-08T10:21:16.674Z,2.97
2022-12-08T10:22:16.688Z,2.96
2022-12-08T10:23:16.692Z,2.97
2022-12-08T10:24:16.709Z,2.97
2022-12-08T10:25:16.724Z,3.01
2022-12-08T10:26:16.718Z,3.00
2022-12-08T10:27:16.722Z,3.04
2022-12-08T10:28:16.733Z,2.99
2022-12-08T10:29:16.740Z,3.00
2022-12-08T10:30:16.750Z,2.96
2022-12-08T10:31:16.827Z,2.96
2022-12-08T10:32:16.766Z,3.04
2022-12-08T10:33:16.772Z,3.07
2022-12-08T10:34:16.786Z,3.09
2022-12-08T10:35:16.792Z,3.04
2022-12-08T10:36:16.801Z,3.08
2022-12-08T10:37:16.805Z,3.06
2022-12-08T10:38:16.811Z,3.01
2022-12-08T10:39:16.819Z,2.96
2022-12-08T10:40:16.827Z,2.96
2022-12-08T10:41:16.833Z,3.01
2022-12-08T10:42:16.841Z,3.03
2022-12-08T10:43:16.847Z,2.99
2022-12-08T10:44:16.860Z,2.90
2022-12-08T10:45:16.857Z,2.83
2022-12-08T10:46:16.903Z,2.81
2022-12-08T10:47:16.872Z,2.86
2022-12-08T10:48:16.875Z,2.92
2022-12-08T10:49:16.882Z,2.99
2022-12-08T10:50:16.889Z,3.02
2022-12-08T10:51:16.895Z,3.04
2022-12-08T10:52:16.901Z,3.10
2022-12-08T10:53:16.910Z,3.11
2022-12-08T10:54:21.830Z,3.17
2022-12-08T10:55:16.922Z,3.17
2022-12-08T10:56:16.933Z,3.22
2022-12-08T10:57:16.934Z,3.21
2022-12-08T10:58:16.942Z,3.27
2022-12-08T10:59:16.949Z,3.27
2022-12-08T11:00:17.236Z,3.24
2022-12-08T11:01:16.994Z,3.29
2022-12-08T11:02:17.025Z,3.28
2022-12-08T11:03:16.976Z,3.26
2022-12-08T11:04:16.983Z,3.23
2022-12-08T11:05:16.995Z,3.30
2022-12-08T11:06:16.997Z,3.22
2022-12-08T11:07:17.007Z,3.17
2022-12-08T11:08:17.047Z,3.14
2022-12-08T11:09:17.021Z,3.16
2022-12-08T11:10:17.035Z,3.18
2022-12-08T11:11:17.125Z,3.24
2022-12-08T11:12:17.055Z,3.24
2022-12-08T11:13:17.046Z,3.34
2022-12-08T11:14:17.055Z,3.41
2022-12-08T11:15:17.059Z,3.33
2022-12-08T11:16:17.107Z,3.37
2022-12-08T11:17:17.075Z,3.44
2022-12-08T11:18:17.079Z,3.56
2022-12-08T11:19:17.092Z,3.66
2022-12-08T11:20:17.175Z,3.69
2022-12-08T11:21:17.101Z,3.78
2022-12-08T11:22:17.105Z,3.86
2022-12-08T11:23:17.112Z,3.75
2022-12-08T11:24:17.120Z,3.73
2022-12-08T11:25:17.127Z,3.56
2022-12-08T11:26:17.131Z,3.44
2022-12-08T11:27:17.183Z,3.48
2022-12-08T11:28:17.145Z,3.26
2022-12-08T11:29:17.150Z,3.06
2022-12-08T11:30:17.541Z,2.93
2022-12-08T11:31:17.196Z,2.74
2022-12-08T11:32:17.171Z,2.54
2022-12-08T11:33:17.176Z,2.25
2022-12-08T11:34:17.180Z,2.22
2022-12-08T11:35:17.188Z,2.18
2022-12-08T11:36:17.203Z,2.16
2022-12-08T11:37:17.201Z,2.23
2022-12-08T11:38:21.806Z,2.33
2022-12-08T11:39:17.216Z,2.41
2022-12-08T11:40:17.222Z,2.51
2022-12-08T11:41:17.237Z,2.56
2022-12-08T11:42:17.240Z,2.68
2022-12-08T11:43:17.249Z,2.72
2022-12-08T11:44:17.255Z,2.73
2022-12-08T11:45:17.259Z,2.79
2022-12-08T11:46:17.360Z,2.76
2022-12-08T11:47:17.274Z,2.73
2022-12-08T11:48:17.280Z,2.71
2022-12-08T11:49:17.288Z,2.69
2022-12-08T11:50:18.214Z,2.57
2022-12-08T11:51:17.299Z,2.52
2022-12-08T11:52:17.310Z,2.51
2022-12-08T11:53:17.311Z,2.44
2022-12-08T11:54:17.317Z,2.45
2022-12-08T11:55:17.329Z,2.40
2022-12-08T11:56:17.335Z,2.34
2022-12-08T11:57:17.346Z,2.21
2022-12-08T11:58:17.411Z,2.19
2022-12-08T11:59:17.361Z,2.21
2022-12-08T12:00:17.366Z,2.27
2022-12-08T12:01:17.374Z,2.36
2022-12-08T12:02:17.440Z,2.36
2022-12-08T12:03:17.423Z,2.32
2022-12-08T12:04:17.395Z,2.35
2022-12-08T12:05:27.982Z,2.36
2022-12-08T12:06:37.980Z,2.47
2022-12-08T12:07:20.510Z,2.35
2022-12-08T12:08:17.473Z,2.27
2022-12-08T12:09:17.433Z,2.23
2022-12-08T12:10:17.439Z,2.23
2022-12-08T12:11:17.447Z,2.28
2022-12-08T12:12:17.451Z,2.36
2022-12-08T12:13:17.459Z,2.41
2022-12-08T12:14:17.469Z,2.53
2022-12-08T12:15:17.473Z,2.62
2022-12-08T12:16:17.521Z,2.70
2022-12-08T12:17:17.486Z,2.76
2022-12-08T12:18:17.495Z,2.85
2022-12-08T12:19:17.500Z,2.89
2022-12-08T12:20:17.508Z,2.91
2022-12-08T12:21:17.519Z,2.92
2022-12-08T12:22:17.523Z,2.94
2022-12-08T12:23:17.543Z,3.00
2022-12-08T12:24:20.918Z,3.04
2022-12-08T12:25:17.545Z,3.13
2022-12-08T12:26:17.552Z,3.14
2022-12-08T12:27:17.559Z,3.13
2022-12-08T12:28:17.569Z,3.14
2022-12-08T12:29:17.591Z,3.20
2022-12-08T12:30:17.592Z,3.17
2022-12-08T12:31:17.702Z,3.16
2022-12-08T12:32:17.593Z,3.03
2022-12-08T12:33:17.635Z,3.00
2022-12-08T12:34:17.606Z,3.03
2022-12-08T12:35:18.074Z,3.06
2022-12-08T12:36:17.621Z,3.04
2022-12-08T12:37:17.625Z,3.10
2022-12-08T12:38:17.634Z,3.09
2022-12-08T12:39:17.644Z,3.13
2022-12-08T12:40:17.650Z,3.09
2022-12-08T12:41:20.984Z,3.03
2022-12-08T12:42:17.667Z,3.09
2022-12-08T12:43:17.679Z,3.11
2022-12-08T12:44:17.706Z,3.19
2022-12-08T12:45:17.699Z,3.19
2022-12-08T12:46:17.773Z,3.16
2022-12-08T12:47:17.714Z,3.15
2022-12-08T12:48:17.722Z,3.15
2022-12-08T12:49:17.733Z,3.14
2022-12-08T12:50:17.761Z,3.16
2022-12-08T12:51:17.746Z,3.16
2022-12-08T12:52:17.753Z,3.17
2022-12-08T12:53:17.764Z,3.17
2022-12-08T12:54:17.773Z,3.17
2022-12-08T12:55:17.775Z,3.06
2022-12-08T12:56:17.784Z,3.03
2022-12-08T12:57:17.793Z,3.01
2022-12-08T12:58:17.801Z,3.03
2022-12-08T12:59:17.810Z,2.94
2022-12-08T13:00:17.818Z,2.92
2022-12-08T13:01:17.868Z,2.93
2022-12-08T13:02:17.911Z,2.95
2022-12-08T13:03:17.841Z,2.97
2022-12-08T13:04:17.847Z,2.87
2022-12-08T13:05:17.859Z,2.82
2022-12-08T13:06:17.863Z,2.83
2022-12-08T13:07:17.871Z,2.87
2022-12-08T13:08:17.918Z,2.91
2022-12-08T13:09:17.887Z,2.93
2022-12-08T13:10:17.894Z,2.87
2022-12-08T13:11:17.904Z,2.87
2022-12-08T13:12:17.910Z,2.89
2022-12-08T13:13:17.922Z,2.95
2022-12-08T13:14:17.926Z,2.94
2022-12-08T13:15:17.936Z,3.00
2022-12-08T13:16:19.502Z,3.02
2022-12-08T13:17:17.977Z,3.01
2022-12-08T13:18:17.962Z,2.96
2022-12-08T13:19:17.968Z,3.03
2022-12-08T13:20:17.979Z,3.02
2022-12-08T13:21:17.980Z,2.97
2022-12-08T13:22:17.988Z,2.92
2022-12-08T13:23:17.995Z,2.82
2022-12-08T13:24:18.006Z,2.68
2022-12-08T13:25:18.006Z,2.66
2022-12-08T13:26:18.015Z,2.72
2022-12-08T13:27:18.025Z,2.74
2022-12-08T13:28:18.037Z,2.78
2022-12-08T13:29:18.041Z,2.80
2022-12-08T13:30:18.053Z,2.89
2022-12-08T13:31:18.144Z,2.94
2022-12-08T13:32:18.060Z,3.02
2022-12-08T13:33:18.919Z,3.05
2022-12-08T13:34:18.081Z,3.11
2022-12-08T13:35:18.083Z,3.13
2022-12-08T13:36:18.091Z,3.19
2022-12-08T13:37:18.104Z,3.20